Montreal / Saint-Hubert Airport

CYHU | YHU

Montreal , Quebec , Canada

Sunday, January 26th, 2020 | 18:27

Weather

CYHU 262320Z AUTO 22011KT 9SM -UP OVC011 01/M00 A2955 RMK SLP010

Charts

No Charts Available

Gates

No Gates Available

Runways

3 Available

Events

No events for this airport


New event